createdAt,value
2023-04-22T06:57:53.297Z,48757.78
2023-04-22T07:00:19.780Z,48742.13
2023-04-22T07:02:46.318Z,48718.59
2023-04-22T07:05:12.914Z,48738.19
2023-04-22T07:07:39.339Z,48757.78
2023-04-22T07:10:06.077Z,48765.63
2023-04-22T07:12:32.460Z,48746.03
2023-04-22T07:14:58.875Z,48759.75
2023-04-22T07:17:25.408Z,48742.13
2023-04-22T07:19:51.801Z,48746.03
2023-04-22T07:22:18.242Z,48781.31
2023-04-22T07:24:44.631Z,48777.38
2023-04-22T07:27:11.338Z,48744.06
2023-04-22T07:29:38.000Z,48769.53
2023-04-22T07:32:04.729Z,48761.72
2023-04-22T07:34:31.176Z,48765.63
2023-04-22T07:36:57.654Z,48777.38
2023-04-22T07:39:24.054Z,48753.88
2023-04-22T07:41:51.290Z,48763.66
2023-04-22T07:44:21.397Z,48753.88
2023-04-22T07:46:48.593Z,48773.47
2023-04-22T07:49:16.896Z,48773.47
2023-04-22T07:51:44.690Z,48789.13
2023-04-22T07:54:11.111Z,48757.78
2023-04-22T07:56:37.658Z,48769.53
2023-04-22T07:59:04.222Z,48761.72
2023-04-22T08:01:30.843Z,48765.63
2023-04-22T08:03:57.767Z,48761.72
2023-04-22T08:06:24.442Z,48724.50
2023-04-22T08:08:50.851Z,48738.19
2023-04-22T08:11:17.240Z,48769.53
2023-04-22T08:13:43.718Z,48759.75
2023-04-22T08:16:10.347Z,48765.63
2023-04-22T08:18:36.797Z,48746.03
2023-04-22T08:21:03.331Z,48736.25
2023-04-22T08:23:29.871Z,48744.06
2023-04-22T08:25:56.251Z,48732.31
2023-04-22T08:28:22.967Z,48765.63
2023-04-22T08:30:49.340Z,48753.88
2023-04-22T08:33:16.852Z,48785.22
2023-04-22T08:35:43.296Z,48761.72
2023-04-22T08:38:09.694Z,48769.53
2023-04-22T08:40:36.496Z,48761.72
2023-04-22T08:43:02.998Z,48759.75
2023-04-22T08:45:29.970Z,48793.06
2023-04-22T08:47:57.124Z,48759.75
2023-04-22T08:50:23.551Z,48765.63
2023-04-22T08:52:50.001Z,48775.41
2023-04-22T08:55:16.638Z,48761.72
2023-04-22T08:57:44.097Z,48746.03
2023-04-22T09:00:10.976Z,48771.50
2023-04-22T09:02:38.609Z,48746.03
2023-04-22T09:05:07.092Z,48761.72
2023-04-22T09:07:33.494Z,48785.22
2023-04-22T09:09:59.856Z,48779.34
2023-04-22T09:12:26.264Z,48746.03
2023-04-22T09:14:52.842Z,48783.25
2023-04-22T09:17:31.073Z,48785.22
2023-04-22T09:20:01.844Z,48793.06
2023-04-22T09:22:36.678Z,48777.38
2023-04-22T09:25:07.280Z,48789.13
2023-04-22T09:27:35.574Z,48769.53
2023-04-22T09:30:07.909Z,48781.31
2023-04-22T09:32:34.435Z,48798.94
2023-04-22T09:35:01.728Z,48777.38
2023-04-22T09:37:36.115Z,48769.53
2023-04-22T09:40:09.600Z,48777.38
2023-04-22T09:42:48.614Z,48781.31
2023-04-22T09:45:26.172Z,48761.72
2023-04-22T09:47:53.468Z,48777.38
2023-04-22T09:50:21.567Z,48773.47
2023-04-22T09:52:58.859Z,48777.38
2023-04-22T09:55:27.754Z,48765.63
2023-04-22T09:57:56.367Z,48804.81
2023-04-22T10:00:30.603Z,48761.72
2023-04-22T10:02:57.131Z,48796.97
2023-04-22T10:05:25.337Z,48796.97
2023-04-22T10:07:52.052Z,48777.38
2023-04-22T10:10:18.547Z,48793.06
2023-04-22T10:12:47.093Z,48791.09
2023-04-22T10:15:13.768Z,48806.75
2023-04-22T10:17:41.157Z,48798.94
2023-04-22T10:20:13.917Z,48785.22
2023-04-22T10:22:42.801Z,48798.94
2023-04-22T10:25:20.933Z,48791.09
2023-04-22T10:27:54.222Z,48765.63
2023-04-22T10:30:29.370Z,48800.88
2023-04-22T10:32:55.934Z,48816.56
2023-04-22T10:35:29.309Z,48757.78
2023-04-22T10:37:55.746Z,48781.31
2023-04-22T10:40:23.113Z,48789.13
2023-04-22T10:42:52.207Z,48793.06
2023-04-22T10:45:19.029Z,48798.94
2023-04-22T10:47:46.140Z,48793.06
2023-04-22T10:50:32.943Z,48800.88
2023-04-22T10:53:20.209Z,48795.00
2023-04-22T10:55:51.881Z,48783.25
2023-04-22T10:58:20.395Z,48769.53
2023-04-22T11:03:24.680Z,48767.59
2023-04-22T11:06:17.684Z,48785.22
2023-04-22T11:08:49.114Z,48800.88
2023-04-22T11:11:19.477Z,48798.94
2023-04-22T11:13:50.256Z,48796.97
2023-04-22T11:16:17.464Z,48787.19
2023-04-22T11:18:47.023Z,48810.69
2023-04-22T11:21:14.273Z,48804.81
2023-04-22T11:23:52.082Z,48818.53
2023-04-22T11:26:19.717Z,48812.63
2023-04-22T11:28:46.667Z,48818.53
2023-04-22T11:31:14.702Z,48783.25
2023-04-22T11:33:41.312Z,48773.47
2023-04-22T11:36:12.066Z,48804.81
2023-04-22T11:38:38.447Z,48789.13
2023-04-22T11:41:05.154Z,48793.06
2023-04-22T11:43:31.682Z,48828.31
2023-04-22T11:45:58.344Z,48800.88
2023-04-22T11:48:24.819Z,48816.56
2023-04-22T11:51:08.846Z,48777.38
2023-04-22T11:53:35.281Z,48820.47
2023-04-22T11:56:03.716Z,48820.47
2023-04-22T11:58:30.558Z,48793.06
2023-04-22T12:00:58.755Z,48808.72
2023-04-22T12:03:27.923Z,48789.13
2023-04-22T12:05:59.692Z,48808.72
2023-04-22T12:08:49.379Z,48802.84
2023-04-22T12:11:15.845Z,48816.56
2023-04-22T12:13:45.449Z,48804.81
2023-04-22T12:16:14.320Z,48804.81
2023-04-22T12:18:48.289Z,48820.47
2023-04-22T12:21:17.321Z,48789.13
2023-04-22T12:23:48.790Z,48806.75
2023-04-22T12:26:16.694Z,48781.31
2023-04-22T12:28:44.540Z,48808.72
2023-04-22T12:31:11.639Z,48812.63
2023-04-22T12:33:38.728Z,48818.53
2023-04-22T12:36:06.403Z,48818.53
2023-04-22T12:38:33.357Z,48832.22
2023-04-22T12:41:00.448Z,48808.72
2023-04-22T12:43:27.076Z,48800.88
2023-04-22T12:45:53.526Z,48796.97
2023-04-22T12:48:20.191Z,48820.47
2023-04-22T12:50:46.582Z,48814.59
2023-04-22T12:53:13.303Z,48796.97
2023-04-22T12:55:40.974Z,48796.97
2023-04-22T12:58:07.522Z,48832.22
2023-04-22T13:00:34.003Z,48816.56
2023-04-22T13:03:00.673Z,48824.41
2023-04-22T13:05:27.312Z,48804.81
2023-04-22T13:08:05.877Z,48789.13
2023-04-22T13:10:34.119Z,48836.16
2023-04-22T13:13:16.088Z,48816.56
2023-04-22T13:15:45.011Z,48820.47
2023-04-22T13:18:11.493Z,48840.06
2023-04-22T13:20:38.014Z,48844.00
2023-04-22T13:23:05.154Z,48812.63
2023-04-22T13:25:32.118Z,48824.41
2023-04-22T13:27:58.586Z,48808.72
2023-04-22T13:30:24.961Z,48834.19
2023-04-22T13:32:52.256Z,48820.47
2023-04-22T13:35:18.785Z,48820.47
2023-04-22T13:37:46.201Z,48816.56
2023-04-22T13:40:12.922Z,48830.28
2023-04-22T13:42:39.384Z,48785.22
2023-04-22T13:45:07.017Z,48828.31
2023-04-22T13:47:33.718Z,48834.19
2023-04-22T13:50:01.610Z,48830.28
2023-04-22T13:52:28.172Z,48832.22
2023-04-22T13:54:54.589Z,48820.47
2023-04-22T13:57:21.557Z,48822.44
2023-04-22T13:59:49.263Z,48800.88
2023-04-22T14:02:15.946Z,48812.63
2023-04-22T14:04:42.363Z,48855.75
2023-04-22T14:07:08.747Z,48808.72
2023-04-22T14:09:35.392Z,48847.91
2023-04-22T14:12:03.135Z,48828.31
2023-04-22T14:14:29.705Z,48840.06
2023-04-22T14:16:56.107Z,48849.88
2023-04-22T14:19:23.900Z,48826.34
2023-04-22T14:21:50.298Z,48808.72
2023-04-22T14:24:17.066Z,48844.00
2023-04-22T14:26:43.461Z,48834.19
2023-04-22T14:29:10.259Z,48838.09
2023-04-22T14:31:36.621Z,48808.72
2023-04-22T14:34:03.353Z,48810.69
2023-04-22T14:36:29.910Z,48808.72
2023-04-22T14:38:56.500Z,48818.53
2023-04-22T14:41:23.157Z,48824.41
2023-04-22T14:43:49.680Z,48832.22
2023-04-22T14:46:16.093Z,48816.56
2023-04-22T14:48:42.534Z,48800.88
2023-04-22T14:51:08.926Z,48863.56
2023-04-22T14:53:35.309Z,48832.22
2023-04-22T14:56:01.744Z,48844.00
2023-04-22T14:58:31.321Z,48838.09
2023-04-22T15:00:59.834Z,48824.41
2023-04-22T15:03:26.580Z,48828.31
2023-04-22T15:05:54.860Z,48840.06
2023-04-22T15:08:21.632Z,48847.91
2023-04-22T15:10:48.040Z,48840.06
2023-04-22T15:13:14.488Z,48796.97
2023-04-22T15:15:41.168Z,48840.06
2023-04-22T15:18:07.616Z,48824.41
2023-04-22T15:20:34.649Z,48824.41
2023-04-22T15:23:02.011Z,48826.34
2023-04-22T15:25:28.458Z,48820.47
2023-04-22T15:27:56.879Z,48824.41
2023-04-22T15:30:24.367Z,48814.59
2023-04-22T15:32:50.805Z,48820.47
2023-04-22T15:35:17.339Z,48806.75
2023-04-22T15:37:45.071Z,48804.81
2023-04-22T15:40:11.608Z,48836.16
2023-04-22T15:42:38.010Z,48826.34
2023-04-22T15:45:04.986Z,48828.31
2023-04-22T15:47:32.584Z,48832.22
2023-04-22T15:50:05.948Z,48828.31
2023-04-22T15:52:32.975Z,48836.16
2023-04-22T15:55:02.019Z,48822.44
2023-04-22T15:57:28.907Z,48804.81
2023-04-22T16:00:06.779Z,48824.41
2023-04-22T16:02:37.271Z,48832.22
2023-04-22T16:05:04.638Z,48816.56
2023-04-22T16:07:31.655Z,48816.56
2023-04-22T16:09:59.263Z,48822.44
2023-04-22T16:12:25.644Z,48824.41
2023-04-22T16:14:52.023Z,48796.97
2023-04-22T16:17:18.696Z,48810.69
2023-04-22T16:19:45.253Z,48806.75
2023-04-22T16:22:11.822Z,48822.44
2023-04-22T16:24:38.206Z,48828.31
2023-04-22T16:27:04.575Z,48812.63
2023-04-22T16:29:31.307Z,48808.72
2023-04-22T16:31:57.694Z,48820.47
2023-04-22T16:34:24.054Z,48798.94
2023-04-22T16:36:50.937Z,48812.63
2023-04-22T16:39:18.991Z,48800.88
2023-04-22T16:41:46.554Z,48800.88
2023-04-22T16:44:12.942Z,48812.63
2023-04-22T16:46:39.379Z,48800.88
2023-04-22T16:49:08.448Z,48812.63
2023-04-22T16:51:37.942Z,48812.63
2023-04-22T16:54:04.395Z,48820.47
2023-04-22T16:56:30.784Z,48816.56
2023-04-22T16:58:57.216Z,48789.13
2023-04-22T17:01:24.188Z,48796.97
2023-04-22T17:03:50.813Z,48808.72
2023-04-22T17:06:17.674Z,48828.31
2023-04-22T17:08:44.049Z,48818.53
2023-04-22T17:11:11.850Z,48795.00
2023-04-22T17:13:38.249Z,48816.56
2023-04-22T17:16:04.776Z,48814.59
2023-04-22T17:18:31.185Z,48808.72
2023-04-22T17:20:57.828Z,48820.47
2023-04-22T17:23:24.175Z,48812.63
2023-04-22T17:25:50.641Z,48781.31
2023-04-22T17:28:17.057Z,48810.69
2023-04-22T17:30:43.463Z,48814.59
2023-04-22T17:33:09.879Z,48787.19
2023-04-22T17:35:36.279Z,48789.13
2023-04-22T17:38:02.663Z,48796.97
2023-04-22T17:40:29.432Z,48796.97
2023-04-22T17:42:55.803Z,48785.22
2023-04-22T17:45:22.221Z,48777.38
2023-04-22T17:47:48.773Z,48808.72
2023-04-22T17:50:15.473Z,48789.13
2023-04-22T17:52:41.868Z,48773.47
2023-04-22T17:55:08.798Z,48804.81
2023-04-22T17:57:35.229Z,48773.47
2023-04-22T18:00:01.647Z,48781.31
2023-04-22T18:02:28.204Z,48777.38
2023-04-22T18:04:54.704Z,48779.34
2023-04-22T18:07:21.137Z,48765.63
2023-04-22T18:09:49.456Z,48793.06
2023-04-22T18:12:15.971Z,48791.09
2023-04-22T18:14:42.439Z,48789.13
2023-04-22T18:17:08.828Z,48804.81
2023-04-22T18:19:35.183Z,48777.38
2023-04-22T18:22:01.701Z,48785.22
2023-04-22T18:24:28.237Z,48800.88
2023-04-22T18:26:54.658Z,48777.38
2023-04-22T18:29:21.096Z,48793.06
2023-04-22T18:31:47.657Z,48757.78
2023-04-22T18:34:15.774Z,48753.88
2023-04-22T18:36:42.204Z,48789.13
2023-04-22T18:39:09.440Z,48781.31
2023-04-22T18:41:37.961Z,48771.50
2023-04-22T18:44:04.666Z,48757.78
2023-04-22T18:46:31.124Z,48769.53
2023-04-22T18:48:57.587Z,48781.31
2023-04-22T18:51:23.984Z,48757.78
2023-04-22T18:53:50.394Z,48775.41
2023-04-22T18:56:16.798Z,48777.38
2023-04-22T18:58:43.146Z,48773.47
2023-04-22T19:01:09.881Z,48761.72
2023-04-22T19:03:36.554Z,48773.47
2023-04-22T19:06:03.564Z,48765.63
2023-04-22T19:08:30.110Z,48761.72
2023-04-22T19:10:56.670Z,48789.13
2023-04-22T19:15:54.835Z,48742.13
2023-04-22T19:18:21.416Z,48773.47
2023-04-22T19:20:47.929Z,48757.78
2023-04-22T19:23:15.265Z,48753.88
2023-04-22T19:25:42.503Z,48746.03
2023-04-22T19:28:08.924Z,48759.75
2023-04-22T19:30:35.358Z,48769.53
2023-04-22T19:33:02.249Z,48757.78
2023-04-22T19:35:28.670Z,48757.78
2023-04-22T19:37:55.053Z,48753.88
2023-04-22T19:40:21.417Z,48769.53
2023-04-22T19:42:47.778Z,48740.16
2023-04-22T19:45:14.160Z,48777.38
2023-04-22T19:47:40.921Z,48755.84
2023-04-22T19:50:08.483Z,48746.03
2023-04-22T19:52:36.108Z,48757.78
2023-04-22T19:55:11.784Z,48763.66
2023-04-22T19:57:41.911Z,48757.78
2023-04-22T20:00:11.046Z,48753.88
2023-04-22T20:02:38.530Z,48757.78
2023-04-22T20:05:06.212Z,48757.78
2023-04-22T20:07:33.801Z,48738.19
2023-04-22T20:10:03.111Z,48722.53
2023-04-22T20:12:29.715Z,48775.41
2023-04-22T20:14:57.836Z,48738.19
2023-04-22T20:17:25.448Z,48769.53
2023-04-22T20:19:52.803Z,48757.78
2023-04-22T20:22:22.111Z,48757.78
2023-04-22T20:25:02.519Z,48734.28
2023-04-22T20:27:30.777Z,48757.78
2023-04-22T20:30:01.502Z,48746.03
2023-04-22T20:32:29.081Z,48742.13
2023-04-22T20:34:56.474Z,48746.03
2023-04-22T20:37:25.752Z,48765.63
2023-04-22T20:39:53.143Z,48746.03
2023-04-22T20:42:20.593Z,48773.47
2023-04-22T20:44:47.936Z,48730.38
2023-04-22T20:47:16.328Z,48751.91
2023-04-22T20:49:43.514Z,48746.03
2023-04-22T20:52:10.930Z,48742.13
2023-04-22T20:54:39.138Z,48726.44
2023-04-22T20:57:07.094Z,48757.78
2023-04-22T20:59:34.277Z,48746.03
2023-04-22T21:02:02.046Z,48779.34
2023-04-22T21:04:29.558Z,48753.88
2023-04-22T21:06:56.658Z,48736.25
2023-04-22T21:09:26.239Z,48742.13
2023-04-22T21:11:53.178Z,48730.38
2023-04-22T21:14:22.070Z,48767.59
2023-04-22T21:17:03.761Z,48742.13
2023-04-22T21:19:34.228Z,48742.13
2023-04-22T21:22:07.877Z,48730.38
2023-04-22T21:24:35.075Z,48757.78
2023-04-22T21:27:02.019Z,48742.13
2023-04-22T21:29:29.158Z,48771.50
2023-04-22T21:32:08.109Z,48744.06
2023-04-22T21:34:35.728Z,48714.69
2023-04-22T21:37:02.394Z,48785.22
2023-04-22T21:39:29.720Z,48718.59
2023-04-22T21:41:56.110Z,48746.03
2023-04-22T21:44:22.706Z,48761.72
2023-04-22T21:46:49.061Z,48740.16
2023-04-22T21:49:15.932Z,48761.72
2023-04-22T21:51:42.448Z,48738.19
2023-04-22T21:54:09.139Z,48742.13
2023-04-22T21:56:35.833Z,48746.03
2023-04-22T21:59:02.327Z,48787.19
2023-04-22T22:01:28.724Z,48777.38
2023-04-22T22:03:55.305Z,48781.31
2023-04-22T22:06:21.792Z,48769.53
2023-04-22T22:08:48.185Z,48773.47
2023-04-22T22:11:27.450Z,48769.53
2023-04-22T22:13:56.610Z,48753.88
2023-04-22T22:16:23.437Z,48765.63
2023-04-22T22:18:50.544Z,48787.19
2023-04-22T22:21:17.106Z,48785.22
2023-04-22T22:23:43.530Z,48785.22
2023-04-22T22:26:09.917Z,48765.63
2023-04-22T22:28:36.298Z,48777.38
2023-04-22T22:31:02.719Z,48787.19
2023-04-22T22:33:29.605Z,48777.38
2023-04-22T22:35:56.274Z,48820.47
2023-04-22T22:38:22.699Z,48791.09
2023-04-22T22:40:49.195Z,48773.47
2023-04-22T22:43:15.595Z,48793.06
2023-04-22T22:45:42.038Z,48804.81
2023-04-22T22:48:08.497Z,48816.56
2023-04-22T22:50:34.965Z,48816.56
2023-04-22T22:53:01.326Z,48828.31
2023-04-22T22:55:27.818Z,48816.56
2023-04-22T22:57:54.167Z,48810.69
2023-04-22T23:00:20.557Z,48812.63
2023-04-22T23:02:47.254Z,48828.31
2023-04-22T23:05:13.752Z,48822.44
2023-04-22T23:07:40.123Z,48814.59
2023-04-22T23:10:07.486Z,48824.41
2023-04-22T23:12:34.373Z,48840.06
2023-04-22T23:15:01.455Z,48812.63
2023-04-22T23:17:27.824Z,48818.53
2023-04-22T23:19:55.489Z,48808.72
2023-04-22T23:22:22.938Z,48844.00
2023-04-22T23:24:49.564Z,48796.97
2023-04-22T23:27:17.306Z,48818.53
2023-04-22T23:29:44.636Z,48818.53
2023-04-22T23:32:15.293Z,48795.00
2023-04-22T23:34:45.972Z,48824.41
2023-04-22T23:37:14.879Z,48806.75
2023-04-22T23:39:42.751Z,48781.31
2023-04-22T23:42:09.274Z,48812.63
2023-04-22T23:44:35.835Z,48791.09
2023-04-22T23:47:03.090Z,48836.16
2023-04-22T23:49:29.959Z,48836.16
2023-04-22T23:51:56.379Z,48816.56
2023-04-22T23:54:22.986Z,48842.03
2023-04-22T23:56:49.922Z,48800.88
2023-04-22T23:59:16.571Z,48820.47
